Time;durP1;ratioP1;P1;durP2;ratioP2;P2;SDS_P1;SDS_P2;PMS_P1;PMS_P2;Temp;Humidity;BMP_temperature;BMP_pressure;BME280_temperature;BME280_humidity;BME280_pressure;Samples;Min_cycle;Max_cycle;Signal;HPM_P1;HPM_P2
2021/06/04 00:02:23;;;;;;;3.33;2.07;;;;;;;;;;6200807;28;20038;-66
2021/06/04 00:05:31;;;;;;;6.65;2.20;;;;;;;;;;6197735;28;20404;-66
2021/06/04 00:08:32;;;;;;;3.60;2.20;;;;;;;;;;6200424;28;20042;-67
2021/06/04 00:11:35;;;;;;;9.05;2.25;;;;;;;;;;6200467;28;20513;-66
2021/06/04 00:14:40;;;;;;;6.55;2.30;;;;;;;;;;6196084;28;20042;-67
2021/06/04 00:17:43;;;;;;;2.97;1.80;;;;;;;;;;6199644;28;20137;-67
2021/06/04 00:20:44;;;;;;;2.55;1.77;;;;;;;;;;6199829;28;20136;-66
2021/06/04 00:23:46;;;;;;;5.82;2.47;;;;;;;;;;6200024;28;20053;-68
2021/06/04 00:26:49;;;;;;;3.85;2.35;;;;;;;;;;6200183;28;20437;-66
2021/06/04 00:29:51;;;;;;;4.78;2.05;;;;;;;;;;6200358;28;20046;-67
2021/06/04 00:32:53;;;;;;;4.93;2.13;;;;;;;;;;6200550;28;20429;-67
2021/06/04 00:35:54;;;;;;;3.80;2.30;;;;;;;;;;6200138;28;20492;-67
2021/06/04 00:38:57;;;;;;;6.55;2.20;;;;;;;;;;6200299;28;20050;-67
2021/06/04 00:42:04;;;;;;;2.70;2.00;;;;;;;;;;6200484;28;20050;-66
2021/06/04 00:45:12;;;;;;;5.53;2.55;;;;;;;;;;6200645;28;20105;-67
2021/06/04 00:48:14;;;;;;;3.63;2.25;;;;;;;;;;6199527;28;20069;-67
2021/06/04 00:51:19;;;;;;;3.10;2.25;;;;;;;;;;6199764;28;20457;-66
2021/06/04 00:54:22;;;;;;;4.57;2.55;;;;;;;;;;6200122;28;20101;-67
2021/06/04 00:57:25;;;;;;;4.07;2.70;;;;;;;;;;6199884;28;20101;-67
2021/06/04 01:00:31;;;;;;;5.07;2.88;;;;;;;;;;6199187;28;20046;-67
2021/06/04 01:03:36;;;;;;;5.75;2.50;;;;;;;;;;6196253;28;20046;-67
2021/06/04 01:06:39;;;;;;;7.57;3.63;;;;;;;;;;6199576;28;20050;-67
2021/06/04 01:09:50;;;;;;;8.85;2.70;;;;;;;;;;6198292;28;20181;-67
2021/06/04 01:12:54;;;;;;;5.15;2.90;;;;;;;;;;6223810;28;20536;-66
2021/06/04 01:16:10;;;;;;;6.88;2.83;;;;;;;;;;6223378;28;20050;-67
2021/06/04 01:19:38;;;;;;;6.30;3.13;;;;;;;;;;6224019;28;20478;-66
2021/06/04 01:22:59;;;;;;;9.68;3.70;;;;;;;;;;6224053;28;20089;-67
2021/06/04 01:26:05;;;;;;;6.30;3.10;;;;;;;;;;6223180;28;20389;-67
2021/06/04 01:29:09;;;;;;;7.82;3.10;;;;;;;;;;6226975;28;20046;-66
2021/06/04 01:32:15;;;;;;;3.63;2.83;;;;;;;;;;6228903;28;20052;-66
2021/06/04 01:35:22;;;;;;;3.95;2.60;;;;;;;;;;6229697;28;20053;-66
2021/06/04 01:38:28;;;;;;;5.03;3.00;;;;;;;;;;6228763;28;20440;-67
2021/06/04 01:41:31;;;;;;;6.72;2.83;;;;;;;;;;6228987;28;20049;-67
2021/06/04 01:44:37;;;;;;;8.82;2.90;;;;;;;;;;6228511;28;20042;-67
2021/06/04 01:47:41;;;;;;;5.93;3.00;;;;;;;;;;6228750;28;20389;-66
2021/06/04 01:50:45;;;;;;;3.72;2.85;;;;;;;;;;6227838;28;20057;-67
2021/06/04 01:53:50;;;;;;;5.30;3.03;;;;;;;;;;6227542;28;20393;-67
2021/06/04 01:56:57;;;;;;;7.22;3.28;;;;;;;;;;6228060;28;20390;-66
2021/06/04 01:59:59;;;;;;;5.60;2.97;;;;;;;;;;6225084;28;20096;-67
2021/06/04 02:03:00;;;;;;;6.45;2.80;;;;;;;;;;6228444;28;20061;-67
2021/06/04 02:06:02;;;;;;;8.38;3.10;;;;;;;;;;6216124;28;20060;-67
2021/06/04 02:09:07;;;;;;;6.38;3.30;;;;;;;;;;6242368;28;20052;-67
2021/06/04 02:12:11;;;;;;;4.93;3.17;;;;;;;;;;6227687;28;20474;-67
2021/06/04 02:15:15;;;;;;;7.43;3.03;;;;;;;;;;6227850;28;20394;-66
2021/06/04 02:18:21;;;;;;;5.35;2.95;;;;;;;;;;6227587;28;20428;-67
2021/06/04 02:21:25;;;;;;;6.18;3.38;;;;;;;;;;6228533;28;20046;-66
2021/06/04 02:24:32;;;;;;;7.95;3.40;;;;;;;;;;6227623;28;20414;-66
2021/06/04 02:27:37;;;;;;;5.63;2.97;;;;;;;;;;6228248;28;20049;-66
2021/06/04 02:30:43;;;;;;;4.47;2.90;;;;;;;;;;6222190;28;20413;-67
2021/06/04 02:33:46;;;;;;;5.53;2.97;;;;;;;;;;6227388;28;20045;-66
2021/06/04 02:36:50;;;;;;;5.28;2.78;;;;;;;;;;6225586;28;20050;-67
2021/06/04 02:39:56;;;;;;;6.00;2.75;;;;;;;;;;6226603;28;20049;-67
2021/06/04 02:43:05;;;;;;;6.38;2.75;;;;;;;;;;6228005;28;20041;-67
2021/06/04 02:46:10;;;;;;;5.43;2.60;;;;;;;;;;6227005;28;20095;-67
2021/06/04 02:49:13;;;;;;;10.93;3.22;;;;;;;;;;6227427;28;20064;-66
2021/06/04 02:52:29;;;;;;;10.55;2.70;;;;;;;;;;6226942;28;20053;-67
2021/06/04 02:55:32;;;;;;;6.72;3.00;;;;;;;;;;6226655;28;20052;-66
2021/06/04 02:58:36;;;;;;;6.07;2.70;;;;;;;;;;6226690;28;20042;-66
2021/06/04 03:01:38;;;;;;;;;;;;;;;;;;6227706;28;20054;-66
2021/06/04 03:04:43;;;;;;;7.72;2.55;;;;;;;;;;6226608;28;19932;-66
2021/06/04 03:07:45;;;;;;;5.97;2.70;;;;;;;;;;6226188;28;20440;-66
2021/06/04 03:10:49;;;;;;;6.32;2.85;;;;;;;;;;6226482;28;20050;-66
2021/06/04 03:13:52;;;;;;;6.47;2.40;;;;;;;;;;6226173;28;20050;-67
2021/06/04 03:16:56;;;;;;;5.65;2.47;;;;;;;;;;6226265;28;20054;-67
2021/06/04 03:19:58;;;;;;;4.90;2.63;;;;;;;;;;6226647;28;20437;-67
2021/06/04 03:23:00;;;;;;;7.00;2.92;;;;;;;;;;6226601;28;20054;-67
2021/06/04 03:26:06;;;;;;;4.50;2.83;;;;;;;;;;6225588;28;20045;-68
2021/06/04 03:29:13;;;;;;;5.47;2.95;;;;;;;;;;6226122;28;20392;-66
2021/06/04 03:32:16;;;;;;;5.95;2.67;;;;;;;;;;6226267;28;20057;-67
2021/06/04 03:35:18;;;;;;;6.53;3.03;;;;;;;;;;6225793;28;20409;-67
2021/06/04 03:38:19;;;;;;;8.30;3.05;;;;;;;;;;6226065;28;20761;-67
2021/06/04 03:41:23;;;;;;;10.63;3.72;;;;;;;;;;6226136;28;20050;-66
2021/06/04 03:44:28;;;;;;;8.48;3.38;;;;;;;;;;6225823;28;20096;-67
2021/06/04 03:47:29;;;;;;;9.93;4.00;;;;;;;;;;6225888;28;20128;-67
2021/06/04 03:50:31;;;;;;;9.07;3.75;;;;;;;;;;6225241;28;20045;-67
2021/06/04 03:53:33;;;;;;;11.05;4.45;;;;;;;;;;6225814;28;20050;-67
2021/06/04 03:56:35;;;;;;;13.93;4.47;;;;;;;;;;6225555;28;20053;-67
2021/06/04 03:59:38;;;;;;;10.82;4.32;;;;;;;;;;6225280;28;20120;-67
2021/06/04 04:02:40;;;;;;;6.68;4.30;;;;;;;;;;6225447;28;20057;-67
2021/06/04 04:05:42;;;;;;;6.85;4.30;;;;;;;;;;6224931;28;20096;-67
2021/06/04 04:08:43;;;;;;;11.02;5.10;;;;;;;;;;6225277;28;20077;-67
2021/06/04 04:11:47;;;;;;;7.97;4.70;;;;;;;;;;6225784;28;20057;-67
2021/06/04 04:14:50;;;;;;;6.20;4.45;;;;;;;;;;6225012;28;20057;-67
2021/06/04 04:17:54;;;;;;;13.18;4.88;;;;;;;;;;6224821;28;20042;-67
2021/06/04 04:20:57;;;;;;;8.80;4.72;;;;;;;;;;6225081;28;20057;-67
2021/06/04 04:24:01;;;;;;;8.45;4.55;;;;;;;;;;6224746;28;20053;-68
2021/06/04 04:27:02;;;;;;;;;;;;;;;;;;6225669;28;20057;-67
2021/06/04 04:30:09;;;;;;;7.22;4.80;;;;;;;;;;6224715;28;19922;-68
2021/06/04 04:33:13;;;;;;;8.45;5.10;;;;;;;;;;6225116;28;20054;-67
2021/06/04 04:36:16;;;;;;;12.10;5.68;;;;;;;;;;6214332;28;20513;-68
2021/06/04 04:39:20;;;;;;;10.50;4.90;;;;;;;;;;6222858;28;20064;-67
2021/06/04 04:42:22;;;;;;;10.38;5.07;;;;;;;;;;6224158;28;20069;-68
2021/06/04 04:45:26;;;;;;;8.75;4.70;;;;;;;;;;6224603;28;20097;-67
2021/06/04 04:48:27;;;;;;;7.22;4.68;;;;;;;;;;6223916;28;20060;-65
2021/06/04 04:51:30;;;;;;;7.93;5.30;;;;;;;;;;6224133;28;20524;-66
2021/06/04 04:54:31;;;;;;;7.03;5.18;;;;;;;;;;6223836;28;20042;-67
2021/06/04 04:57:32;;;;;;;11.45;5.00;;;;;;;;;;6224379;28;20050;-67
2021/06/04 05:00:36;;;;;;;13.68;5.28;;;;;;;;;;6223732;28;20441;-67
2021/06/04 05:03:38;;;;;;;10.35;4.68;;;;;;;;;;6223132;28;20058;-66
2021/06/04 05:06:39;;;;;;;11.60;5.07;;;;;;;;;;6223526;28;20050;-66
2021/06/04 05:09:40;;;;;;;10.98;5.82;;;;;;;;;;6224055;28;20054;-66
2021/06/04 05:12:42;;;;;;;12.18;5.68;;;;;;;;;;6223894;28;20097;-66
2021/06/04 05:15:44;;;;;;;10.25;5.10;;;;;;;;;;6223927;28;20046;-66
2021/06/04 05:18:46;;;;;;;10.20;5.00;;;;;;;;;;6223405;28;20049;-66
2021/06/04 05:21:48;;;;;;;10.40;5.03;;;;;;;;;;6224071;28;20429;-66
2021/06/04 05:24:49;;;;;;;11.05;4.88;;;;;;;;;;6223864;28;20108;-66
2021/06/04 05:27:51;;;;;;;17.20;5.53;;;;;;;;;;6224202;28;20104;-65
2021/06/04 05:30:57;;;;;;;8.75;4.82;;;;;;;;;;6223419;28;20054;-65
2021/06/04 05:33:59;;;;;;;7.68;4.90;;;;;;;;;;6223632;28;20049;-66
2021/06/04 05:37:00;;;;;;;10.98;4.78;;;;;;;;;;6223858;28;20045;-66
2021/06/04 05:40:02;;;;;;;14.63;5.43;;;;;;;;;;6222416;28;20073;-67
2021/06/04 05:43:04;;;;;;;10.93;5.47;;;;;;;;;;6223280;28;20477;-66
2021/06/04 05:46:08;;;;;;;7.63;5.30;;;;;;;;;;6222297;28;20528;-66
2021/06/04 05:49:10;;;;;;;9.43;5.22;;;;;;;;;;6223473;28;20069;-66
2021/06/04 05:52:14;;;;;;;9.15;5.47;;;;;;;;;;6222692;28;20046;-65
2021/06/04 05:55:18;;;;;;;10.25;5.18;;;;;;;;;;6223212;28;20137;-66
2021/06/04 05:58:21;;;;;;;12.45;5.40;;;;;;;;;;6222808;28;20050;-67
2021/06/04 06:01:26;;;;;;;7.00;5.07;;;;;;;;;;6223012;28;20057;-66
2021/06/04 06:04:27;;;;;;;6.35;5.25;;;;;;;;;;6217132;28;20054;-66
2021/06/04 06:07:28;;;;;;;10.27;5.40;;;;;;;;;;6198602;28;20081;-66
2021/06/04 06:10:30;;;;;;;12.57;5.63;;;;;;;;;;6198482;28;20043;-67
2021/06/04 06:13:31;;;;;;;17.20;5.60;;;;;;;;;;6199004;28;20548;-66
2021/06/04 06:16:34;;;;;;;13.23;5.40;;;;;;;;;;6203011;28;20126;-66
2021/06/04 06:19:35;;;;;;;13.88;6.22;;;;;;;;;;6201434;28;20410;-66
2021/06/04 06:22:36;;;;;;;9.32;5.80;;;;;;;;;;6202625;28;20362;-66
2021/06/04 06:25:40;;;;;;;12.18;5.38;;;;;;;;;;6199759;28;20165;-66
2021/06/04 06:28:41;;;;;;;;;;;;;;;;;;6203098;28;20053;-66
2021/06/04 06:31:47;;;;;;;8.05;6.18;;;;;;;;;;6201818;28;19933;-66
2021/06/04 06:34:49;;;;;;;10.02;6.10;;;;;;;;;;6201658;28;20046;-66
2021/06/04 06:37:50;;;;;;;10.70;5.72;;;;;;;;;;6202267;28;20046;-66
2021/06/04 06:40:52;;;;;;;1172.38;84.85;;;;;;;;;;6193265;28;20069;-68
2021/06/04 06:43:54;;;;;;;30.35;6.82;;;;;;;;;;6201711;28;20482;-68
2021/06/04 06:46:57;;;;;;;21.90;6.65;;;;;;;;;;6202019;28;20050;-66
2021/06/04 06:50:00;;;;;;;12.20;6.60;;;;;;;;;;6202582;28;20054;-66
2021/06/04 06:53:06;;;;;;;9.45;6.18;;;;;;;;;;6190430;28;20074;-66
2021/06/04 06:56:09;;;;;;;10.07;6.13;;;;;;;;;;6201043;28;20054;-67
2021/06/04 06:59:11;;;;;;;11.35;6.22;;;;;;;;;;6201569;28;20042;-67
2021/06/04 07:02:14;;;;;;;8.27;6.47;;;;;;;;;;6200871;28;20125;-67
2021/06/04 07:05:15;;;;;;;9.95;6.10;;;;;;;;;;6201297;28;20046;-67
2021/06/04 07:08:16;;;;;;;12.75;5.85;;;;;;;;;;6201423;28;20119;-68
2021/06/04 07:11:19;;;;;;;11.15;6.50;;;;;;;;;;6201490;28;20081;-68
2021/06/04 07:14:23;;;;;;;17.90;5.75;;;;;;;;;;6201446;28;20050;-67
2021/06/04 07:17:28;;;;;;;7.38;4.43;;;;;;;;;;6201888;28;20046;-67
2021/06/04 07:20:34;;;;;;;7.20;4.25;;;;;;;;;;6201166;28;20042;-68
2021/06/04 07:23:35;;;;;;;7.32;3.70;;;;;;;;;;6201637;28;20381;-67
2021/06/04 07:26:36;;;;;;;4.45;3.65;;;;;;;;;;6201185;28;20042;-68
2021/06/04 07:29:37;;;;;;;10.40;4.97;;;;;;;;;;6201930;28;20065;-68
2021/06/04 07:32:41;;;;;;;8.45;3.75;;;;;;;;;;6201396;28;20058;-69
2021/06/04 07:35:43;;;;;;;5.50;3.72;;;;;;;;;;6201782;28;20363;-67
2021/06/04 07:38:44;;;;;;;8.65;3.85;;;;;;;;;;6201129;28;20409;-67
2021/06/04 07:41:45;;;;;;;5.53;3.58;;;;;;;;;;6201500;28;20050;-67
2021/06/04 07:44:46;;;;;;;6.07;3.50;;;;;;;;;;6186717;28;20061;-70
2021/06/04 07:47:49;;;;;;;5.45;3.50;;;;;;;;;;6212316;28;20422;-67
2021/06/04 07:50:53;;;;;;;11.70;3.95;;;;;;;;;;6200002;28;20058;-67
2021/06/04 07:53:54;;;;;;;11.43;4.20;;;;;;;;;;6200928;28;20046;-67
2021/06/04 07:56:55;;;;;;;9.13;4.15;;;;;;;;;;6200411;28;20038;-68
2021/06/04 07:59:57;;;;;;;9.07;4.07;;;;;;;;;;6200558;28;20057;-69
2021/06/04 08:03:02;;;;;;;10.27;3.78;;;;;;;;;;6200457;28;20062;-68
2021/06/04 08:06:04;;;;;;;5.95;4.00;;;;;;;;;;6200577;28;20096;-69
2021/06/04 08:09:07;;;;;;;6.33;4.13;;;;;;;;;;6205856;28;20061;-69
2021/06/04 08:12:12;;;;;;;6.90;3.70;;;;;;;;;;6200398;28;20058;-68
2021/06/04 08:15:17;;;;;;;7.60;3.28;;;;;;;;;;6200656;28;20490;-69
2021/06/04 08:18:22;;;;;;;6.05;2.70;;;;;;;;;;6200529;28;20050;-69
2021/06/04 08:21:27;;;;;;;3.55;2.70;;;;;;;;;;6200352;28;20363;-68
2021/06/04 08:24:33;;;;;;;4.53;2.80;;;;;;;;;;6200115;28;20042;-69
2021/06/04 08:27:34;;;;;;;4.70;2.30;;;;;;;;;;6192842;28;20043;-69
2021/06/04 08:30:36;;;;;;;2.67;1.85;;;;;;;;;;6200170;28;20394;-69
2021/06/04 08:33:41;;;;;;;7.40;2.13;;;;;;;;;;6199935;28;20054;-69
2021/06/04 08:36:44;;;;;;;6.00;2.33;;;;;;;;;;6199693;28;20042;-69
2021/06/04 08:39:45;;;;;;;;;;;;;;;;;;6200095;28;20096;-69
2021/06/04 08:42:57;;;;;;;3.40;1.90;;;;;;;;;;6176908;28;19926;-68
2021/06/04 08:46:05;;;;;;;3.85;1.92;;;;;;;;;;6199837;28;20466;-69
2021/06/04 08:49:14;;;;;;;6.38;1.67;;;;;;;;;;6199719;28;20062;-68
2021/06/04 08:52:20;;;;;;;5.35;2.08;;;;;;;;;;6199817;28;20101;-68
2021/06/04 08:55:29;;;;;;;9.27;1.80;;;;;;;;;;6200273;28;20088;-68
2021/06/04 08:58:41;;;;;;;5.28;1.80;;;;;;;;;;6199834;28;20077;-70
2021/06/04 09:01:47;;;;;;;6.53;1.77;;;;;;;;;;6199975;28;20054;-68
2021/06/04 09:04:53;;;;;;;5.22;2.70;;;;;;;;;;6198907;28;20125;-69
2021/06/04 09:07:56;;;;;;;3.75;1.40;;;;;;;;;;6199873;28;20505;-68
2021/06/04 09:10:59;;;;;;;4.22;1.65;;;;;;;;;;6198876;28;20075;-68
2021/06/04 09:14:00;;;;;;;3.33;1.65;;;;;;;;;;6200631;28;20109;-68
2021/06/04 09:17:10;;;;;;;2.83;1.60;;;;;;;;;;6199419;28;20073;-68
2021/06/04 09:20:16;;;;;;;4.07;2.00;;;;;;;;;;6199808;28;20445;-68
2021/06/04 09:23:20;;;;;;;4.80;1.98;;;;;;;;;;6199625;28;20070;-68
2021/06/04 09:26:24;;;;;;;5.00;1.70;;;;;;;;;;6199162;28;20490;-68
2021/06/04 09:29:27;;;;;;;2.78;1.60;;;;;;;;;;6198311;28;20477;-68
2021/06/04 09:32:28;;;;;;;2.38;1.98;;;;;;;;;;6175358;28;20388;-69
2021/06/04 09:35:31;;;;;;;3.15;1.73;;;;;;;;;;6199545;28;20046;-68
2021/06/04 09:38:39;;;;;;;5.32;2.03;;;;;;;;;;6198894;28;20058;-69
2021/06/04 09:41:46;;;;;;;4.32;1.85;;;;;;;;;;6201224;28;20062;-68
2021/06/04 09:45:10;;;;;;;7.25;1.98;;;;;;;;;;6198891;28;20050;-68
2021/06/04 09:48:14;;;;;;;5.25;2.00;;;;;;;;;;6198919;28;20046;-68
2021/06/04 09:51:24;;;;;;;5.75;2.00;;;;;;;;;;6203998;28;20050;-68
2021/06/04 09:54:28;;;;;;;3.03;2.00;;;;;;;;;;6203826;28;20093;-69
2021/06/04 09:57:29;;;;;;;6.65;1.92;;;;;;;;;;6203818;28;20366;-68
2021/06/04 10:00:33;;;;;;;5.78;2.28;;;;;;;;;;6203824;28;20121;-68
2021/06/04 10:03:38;;;;;;;7.35;2.03;;;;;;;;;;6203301;28;20054;-68
2021/06/04 10:06:43;;;;;;;2.63;1.60;;;;;;;;;;6221353;28;20096;-69
2021/06/04 10:09:46;;;;;;;4.43;2.40;;;;;;;;;;6228071;28;20054;-69
2021/06/04 10:12:50;;;;;;;3.92;2.03;;;;;;;;;;6227497;28;20176;-69
2021/06/04 10:15:52;;;;;;;6.03;2.28;;;;;;;;;;6228501;28;20053;-69
2021/06/04 10:18:53;;;;;;;8.85;1.83;;;;;;;;;;6227918;28;20078;-68
2021/06/04 10:22:26;;;;;;;5.25;1.90;;;;;;;;;;6226626;28;20064;-70
2021/06/04 10:25:37;;;;;;;7.07;2.20;;;;;;;;;;6227551;28;20042;-68
2021/06/04 10:28:42;;;;;;;4.53;1.70;;;;;;;;;;6227370;28;20508;-68
2021/06/04 10:31:51;;;;;;;5.22;2.00;;;;;;;;;;6227750;28;20054;-68
2021/06/04 10:35:12;;;;;;;17.40;3.45;;;;;;;;;;6227613;28;20046;-68
2021/06/04 10:38:17;;;;;;;8.55;2.13;;;;;;;;;;6227140;28;20065;-69
2021/06/04 10:41:23;;;;;;;4.40;1.88;;;;;;;;;;6227181;28;20500;-69
2021/06/04 10:44:32;;;;;;;2.92;1.85;;;;;;;;;;6226422;28;20046;-69
2021/06/04 10:47:38;;;;;;;4.07;2.13;;;;;;;;;;6205373;28;20456;-69
2021/06/04 10:50:41;;;;;;;8.82;2.30;;;;;;;;;;6226458;28;20100;-68
2021/06/04 10:53:49;;;;;;;5.00;1.90;;;;;;;;;;6226610;28;20046;-69
2021/06/04 10:56:58;;;;;;;3.65;1.80;;;;;;;;;;6225720;28;20053;-69
2021/06/04 11:00:08;;;;;;;5.38;1.77;;;;;;;;;;6225135;28;20061;-68
2021/06/04 11:03:11;;;;;;;4.20;1.88;;;;;;;;;;6225857;28;20054;-68
2021/06/04 11:06:15;;;;;;;2.35;1.60;;;;;;;;;;6223107;28;20481;-68
2021/06/04 11:09:21;;;;;;;9.10;2.10;;;;;;;;;;6226617;28;20042;-69
2021/06/04 11:12:34;;;;;;;9.50;2.40;;;;;;;;;;6224857;28;20421;-69
2021/06/04 11:15:50;;;;;;;4.45;2.05;;;;;;;;;;6225902;28;20042;-68
2021/06/04 11:18:55;;;;;;;6.10;1.90;;;;;;;;;;6224574;28;20058;-68
2021/06/04 11:21:57;;;;;;;7.72;2.05;;;;;;;;;;6224398;28;20097;-70
2021/06/04 11:25:01;;;;;;;;;;;;;;;;;;6225264;28;20042;-69
2021/06/04 11:28:09;;;;;;;5.85;1.90;;;;;;;;;;6225131;28;19921;-69
2021/06/04 11:31:21;;;;;;;8.65;2.13;;;;;;;;;;6225880;28;20071;-70
2021/06/04 11:34:41;;;;;;;3.45;1.77;;;;;;;;;;6225039;28;20072;-69
2021/06/04 11:37:49;;;;;;;3.50;1.85;;;;;;;;;;6214181;28;20054;-69
2021/06/04 11:40:54;;;;;;;1.90;1.67;;;;;;;;;;6201268;28;20050;-69
2021/06/04 11:44:04;;;;;;;3.13;2.03;;;;;;;;;;6200564;28;20153;-69
2021/06/04 11:47:27;;;;;;;9.48;2.10;;;;;;;;;;6201753;28;20046;-69
2021/06/04 11:50:35;;;;;;;9.20;2.20;;;;;;;;;;6199962;28;20049;-69
2021/06/04 11:53:37;;;;;;;2.97;1.83;;;;;;;;;;6199773;28;20120;-69
2021/06/04 11:56:47;;;;;;;4.28;2.03;;;;;;;;;;6200292;28;20395;-69
2021/06/04 11:59:51;;;;;;;9.20;2.58;;;;;;;;;;6199973;28;20417;-68
2021/06/04 12:02:53;;;;;;;6.22;2.60;;;;;;;;;;6198981;28;20421;-69
2021/06/04 12:05:56;;;;;;;3.47;1.70;;;;;;;;;;6206944;28;20054;-68
2021/06/04 12:08:58;;;;;;;2.38;1.88;;;;;;;;;;6197522;28;20046;-68
2021/06/04 12:12:39;;;;;;;15.90;2.70;;;;;;;;;;6206883;28;20105;-70
2021/06/04 12:15:45;;;;;;;54.30;5.00;;;;;;;;;;6200335;28;20051;-68
2021/06/04 12:18:57;;;;;;;2.83;1.90;;;;;;;;;;6199139;28;20057;-68
2021/06/04 12:22:05;;;;;;;4.80;2.22;;;;;;;;;;6199774;28;20444;-67
2021/06/04 12:25:09;;;;;;;5.03;1.95;;;;;;;;;;6175342;28;20062;-68
2021/06/04 12:28:31;;;;;;;2.17;1.77;;;;;;;;;;6199103;28;20065;-68
2021/06/04 12:31:52;;;;;;;2.22;1.70;;;;;;;;;;6200290;28;20057;-68
2021/06/04 12:35:00;;;;;;;3.22;2.05;;;;;;;;;;6199318;28;20046;-69
2021/06/04 12:38:22;;;;;;;2.20;1.70;;;;;;;;;;6210261;28;20042;-69
2021/06/04 12:41:25;;;;;;;2.85;1.80;;;;;;;;;;6199724;28;20054;-68
2021/06/04 12:44:28;;;;;;;4.25;2.13;;;;;;;;;;6199310;28;20101;-69
2021/06/04 12:47:31;;;;;;;2.10;1.90;;;;;;;;;;6199747;28;20046;-68
2021/06/04 12:50:34;;;;;;;3.80;2.10;;;;;;;;;;6199335;28;20054;-68
2021/06/04 12:53:37;;;;;;;4.55;2.35;;;;;;;;;;6199229;28;20073;-69
2021/06/04 12:56:44;;;;;;;4.72;1.90;;;;;;;;;;6199326;28;20046;-69
2021/06/04 12:59:48;;;;;;;15.48;2.80;;;;;;;;;;6199437;28;20125;-68
2021/06/04 13:02:54;;;;;;;5.10;1.90;;;;;;;;;;6199528;28;20058;-68
2021/06/04 13:05:58;;;;;;;6.30;2.03;;;;;;;;;;6196503;28;20397;-68
2021/06/04 13:09:00;;;;;;;5.15;2.08;;;;;;;;;;6199779;28;20058;-68
2021/06/04 13:12:02;;;;;;;4.38;2.00;;;;;;;;;;6199221;28;20072;-69
2021/06/04 13:15:14;;;;;;;3.30;1.90;;;;;;;;;;6199170;28;20149;-68
2021/06/04 13:18:18;;;;;;;5.07;2.00;;;;;;;;;;6198471;28;20050;-69
2021/06/04 13:21:22;;;;;;;3.05;2.08;;;;;;;;;;6197972;28;20421;-68
2021/06/04 13:24:29;;;;;;;4.93;2.10;;;;;;;;;;6197261;28;20042;-68
2021/06/04 13:27:32;;;;;;;4.93;2.25;;;;;;;;;;6198796;28;20057;-69
2021/06/04 13:30:36;;;;;;;4.05;2.17;;;;;;;;;;6198827;28;20046;-68
2021/06/04 13:33:39;;;;;;;8.50;2.78;;;;;;;;;;6174249;28;20050;-68
2021/06/04 13:36:40;;;;;;;4.63;2.13;;;;;;;;;;6187236;28;20470;-68
2021/06/04 13:39:42;;;;;;;6.72;2.00;;;;;;;;;;6198903;28;20055;-69
2021/06/04 13:42:46;;;;;;;5.25;2.20;;;;;;;;;;6198598;28;20042;-68
2021/06/04 13:45:48;;;;;;;3.70;2.15;;;;;;;;;;6198857;28;20050;-68
2021/06/04 13:49:04;;;;;;;6.40;2.33;;;;;;;;;;6190731;28;20097;-68
2021/06/04 13:52:21;;;;;;;6.32;2.13;;;;;;;;;;6198760;28;20058;-67
2021/06/04 13:55:23;;;;;;;10.05;2.60;;;;;;;;;;6198399;28;20133;-68
2021/06/04 13:58:26;;;;;;;6.75;2.10;;;;;;;;;;6184983;28;20059;-67
2021/06/04 14:01:28;;;;;;;5.18;2.65;;;;;;;;;;6196853;28;20101;-67
2021/06/04 14:04:37;;;;;;;6.47;2.15;;;;;;;;;;6199621;28;20042;-68
2021/06/04 14:07:40;;;;;;;12.25;2.40;;;;;;;;;;6222358;28;20057;-68
2021/06/04 14:10:59;;;;;;;7.32;2.33;;;;;;;;;;6221477;28;20490;-68
2021/06/04 14:14:04;;;;;;;2.47;2.00;;;;;;;;;;6222375;28;20374;-67
2021/06/04 14:17:18;;;;;;;4.85;2.17;;;;;;;;;;6214939;28;20108;-67
2021/06/04 14:20:35;;;;;;;8.18;2.67;;;;;;;;;;6221994;28;20108;-67
2021/06/04 14:23:36;;;;;;;4.95;2.35;;;;;;;;;;6222070;28;20050;-67
2021/06/04 14:26:46;;;;;;;7.07;2.15;;;;;;;;;;6220898;28;20081;-67
2021/06/04 14:29:57;;;;;;;10.18;2.58;;;;;;;;;;6221203;28;20125;-67
2021/06/04 14:33:10;;;;;;;6.22;2.20;;;;;;;;;;6220410;28;20485;-67
2021/06/04 14:36:13;;;;;;;4.85;1.98;;;;;;;;;;6221809;28;20131;-67
2021/06/04 14:39:32;;;;;;;6.60;1.80;;;;;;;;;;6224868;28;20569;-66
2021/06/04 14:42:33;;;;;;;2.88;1.80;;;;;;;;;;6224649;28;20436;-67
2021/06/04 14:45:35;;;;;;;1.90;1.50;;;;;;;;;;6224384;28;20353;-67
2021/06/04 14:48:38;;;;;;;3.23;1.90;;;;;;;;;;6194150;28;20097;-67
2021/06/04 14:51:40;;;;;;;8.95;2.08;;;;;;;;;;6200667;28;20077;-67
2021/06/04 14:54:42;;;;;;;;;;;;;;;;;;6200940;28;20065;-68
2021/06/04 14:57:43;;;;;;;4.57;2.03;;;;;;;;;;6200727;28;19922;-68
2021/06/04 15:00:44;;;;;;;7.85;2.00;;;;;;;;;;6199900;28;20405;-68
2021/06/04 15:03:47;;;;;;;5.38;2.20;;;;;;;;;;6200275;28;20468;-67
2021/06/04 15:06:48;;;;;;;;;;;;;;;;;;6197837;28;20050;-68
2021/06/04 15:09:49;;;;;;;18.70;2.88;;;;;;;;;;6200256;28;20326;-68
2021/06/04 15:12:51;;;;;;;8.75;2.35;;;;;;;;;;6199838;28;20062;-68
2021/06/04 15:15:52;;;;;;;13.52;1.85;;;;;;;;;;6200414;28;20478;-67
2021/06/04 15:18:55;;;;;;;6.18;1.85;;;;;;;;;;6200173;28;20122;-67
2021/06/04 15:21:56;;;;;;;17.20;2.25;;;;;;;;;;6190098;28;20053;-67
2021/06/04 15:24:58;;;;;;;23.60;2.58;;;;;;;;;;6198262;28;20105;-69
2021/06/04 15:28:00;;;;;;;2.95;1.30;;;;;;;;;;6200403;28;20389;-69
2021/06/04 15:31:03;;;;;;;12.60;2.07;;;;;;;;;;6199799;28;20046;-69
2021/06/04 15:34:06;;;;;;;4.30;1.58;;;;;;;;;;6199790;28;20054;-67
2021/06/04 15:37:08;;;;;;;9.77;1.85;;;;;;;;;;6199318;28;20045;-67
2021/06/04 15:40:11;;;;;;;3.80;1.60;;;;;;;;;;6202933;28;20377;-68
2021/06/04 15:43:13;;;;;;;5.35;1.67;;;;;;;;;;6223782;28;20456;-68
2021/06/04 15:46:15;;;;;;;3.45;1.55;;;;;;;;;;6223158;28;20456;-67
2021/06/04 15:49:18;;;;;;;12.73;1.95;;;;;;;;;;6223674;28;20064;-68
2021/06/04 15:52:19;;;;;;;6.38;1.70;;;;;;;;;;6223503;28;20046;-68
2021/06/04 15:55:22;;;;;;;7.22;2.05;;;;;;;;;;6223495;28;20053;-68
2021/06/04 15:58:23;;;;;;;20.58;2.22;;;;;;;;;;6218712;28;20064;-69
2021/06/04 16:01:24;;;;;;;8.93;1.55;;;;;;;;;;6224053;28;20130;-67
2021/06/04 16:04:27;;;;;;;7.35;1.70;;;;;;;;;;6217694;28;20195;-69
2021/06/04 16:07:28;;;;;;;4.47;1.50;;;;;;;;;;6224040;28;20046;-67
2021/06/04 16:10:32;;;;;;;4.40;1.77;;;;;;;;;;6222190;28;20481;-68
2021/06/04 16:13:33;;;;;;;5.38;1.60;;;;;;;;;;6199237;28;20057;-67
2021/06/04 16:16:36;;;;;;;3.85;1.70;;;;;;;;;;6222495;28;20409;-68
2021/06/04 16:19:44;;;;;;;2.28;1.30;;;;;;;;;;6223016;28;20068;-67
2021/06/04 16:22:45;;;;;;;3.58;1.52;;;;;;;;;;6223341;28;20057;-68
2021/06/04 16:25:48;;;;;;;3.45;1.50;;;;;;;;;;6223191;28;20521;-67
2021/06/04 16:28:50;;;;;;;2.20;1.50;;;;;;;;;;6223166;28;20132;-67
2021/06/04 16:31:54;;;;;;;6.03;1.98;;;;;;;;;;6223074;28;20177;-67
2021/06/04 16:34:56;;;;;;;6.03;1.67;;;;;;;;;;6223318;28;20062;-67
2021/06/04 16:37:57;;;;;;;3.80;1.38;;;;;;;;;;6221444;28;20152;-68
2021/06/04 16:41:00;;;;;;;4.00;1.45;;;;;;;;;;6222264;28;20485;-67
2021/06/04 16:44:01;;;;;;;2.90;1.58;;;;;;;;;;6223113;28;20065;-67
2021/06/04 16:47:02;;;;;;;3.17;1.40;;;;;;;;;;6222761;28;20419;-67
2021/06/04 16:50:07;;;;;;;4.57;1.55;;;;;;;;;;6222585;28;20128;-67
2021/06/04 16:53:09;;;;;;;3.28;1.50;;;;;;;;;;6222336;28;20041;-67
2021/06/04 16:56:14;;;;;;;4.82;1.52;;;;;;;;;;6222444;28;20458;-67
2021/06/04 16:59:15;;;;;;;3.92;1.33;;;;;;;;;;6221799;28;20049;-67
2021/06/04 17:02:16;;;;;;;3.55;1.52;;;;;;;;;;6222524;28;20563;-67
2021/06/04 17:05:20;;;;;;;3.03;1.70;;;;;;;;;;6220368;28;20088;-67
2021/06/04 17:08:21;;;;;;;4.03;1.80;;;;;;;;;;6220059;28;20050;-67
2021/06/04 17:11:22;;;;;;;4.13;1.60;;;;;;;;;;6221620;28;20476;-67
2021/06/04 17:14:23;;;;;;;3.92;1.65;;;;;;;;;;6221958;28;20153;-67
2021/06/04 17:17:27;;;;;;;4.90;2.30;;;;;;;;;;6220070;28;20048;-67
2021/06/04 17:20:29;;;;;;;6.22;1.60;;;;;;;;;;6221832;28;20060;-68
2021/06/04 17:23:31;;;;;;;3.20;1.95;;;;;;;;;;6222282;28;20042;-67
2021/06/04 17:26:32;;;;;;;22.30;2.85;;;;;;;;;;6221574;28;20045;-67
2021/06/04 17:29:34;;;;;;;5.55;1.60;;;;;;;;;;6221918;28;20421;-67
2021/06/04 17:32:35;;;;;;;4.18;1.70;;;;;;;;;;6221409;28;20124;-68
2021/06/04 17:35:38;;;;;;;3.65;1.60;;;;;;;;;;6222425;28;20058;-67
2021/06/04 17:38:39;;;;;;;1.67;1.38;;;;;;;;;;6221447;28;20065;-68
2021/06/04 17:41:40;;;;;;;3.00;1.60;;;;;;;;;;6222080;28;20073;-67
2021/06/04 17:44:41;;;;;;;1.70;1.20;;;;;;;;;;6221326;28;20066;-68
2021/06/04 17:47:43;;;;;;;2.40;1.30;;;;;;;;;;6222184;28;20133;-69
2021/06/04 17:50:47;;;;;;;7.35;1.40;;;;;;;;;;6217128;28;20070;-67
2021/06/04 17:53:49;;;;;;;3.70;1.75;;;;;;;;;;6221456;28;20064;-67
2021/06/04 17:56:50;;;;;;;2.80;1.80;;;;;;;;;;6221056;28;20046;-68
2021/06/04 17:59:53;;;;;;;4.38;1.60;;;;;;;;;;6221402;28;20046;-67
2021/06/04 18:02:55;;;;;;;5.15;1.80;;;;;;;;;;6221146;28;20045;-68
2021/06/04 18:05:58;;;;;;;3.10;1.42;;;;;;;;;;6218464;28;20161;-67
2021/06/04 18:08:59;;;;;;;;;;;;;;;;;;6221465;28;20351;-68
2021/06/04 18:12:00;;;;;;;5.55;1.45;;;;;;;;;;6210742;28;19969;-67
2021/06/04 18:15:01;;;;;;;4.95;1.77;;;;;;;;;;6225802;28;20076;-68
2021/06/04 18:18:03;;;;;;;5.15;1.70;;;;;;;;;;6225697;28;20073;-67
2021/06/04 18:21:07;;;;;;;6.25;2.00;;;;;;;;;;6225552;28;20132;-67
2021/06/04 18:24:09;;;;;;;7.18;1.85;;;;;;;;;;6225443;28;20077;-67
2021/06/04 18:27:11;;;;;;;7.30;1.60;;;;;;;;;;6225682;28;20188;-67